Flight Track Log - Related Links

Times and Time Zones

All times are in EDT time to prevent confusion due to time zone crossing. See the CTL311 flight status page for this flight to view local times or setup timezone preferences in your user account.

Time Position Orientation Groundspeed Altitude Reporting Facility
EDT Latitude Longitude Course Direction KTS MPH feet Rate Location/Type
Tue 10:07:59 PM 41.7833 -87.7333 143° Southeast 128 147 1,400  Level Chicago TRACON
Tue 10:08:59 PM 41.7500 -87.7000 143° Southeast 127 146 2,600 947 Climbing Chicago TRACON
Tue 10:09:53 PM 41.7269 -87.6706 136° Southeast 152 175 3,200 1,190 Climbing Chicago Center
Tue 10:10:55 PM 41.7017 -87.6978 219° Southwest 129 148 4,900 1,220 Climbing Chicago Center
Tue 10:11:56 PM 41.6781 -87.7231 219° Southwest 114 131 5,700 541 Climbing Chicago Center
Tue 10:12:57 PM 41.6469 -87.7544 217° Southwest 124 143 6,000 146 Climbing Chicago Center
Tue 10:13:59 PM 41.6075 -87.7944 217° Southwest 155 178 6,000 -49 Level Chicago Center
Tue 10:15:00 PM 41.5650 -87.8286 211° Southwest 171 197 5,900 -49 Descending Chicago Center
Tue 10:16:01 PM 41.5228 -87.8603 209° Southwest 174 200 5,900 49 Level Chicago Center
Tue 10:17:02 PM 41.4753 -87.9097 218° Southwest 178 205 6,000  Climbing Chicago Center
Tue 10:18:03 PM 41.4361 -87.9494 217° Southwest 177 204 5,900 -49 Descending Chicago Center
Tue 10:19:05 PM 41.3947 -87.9900 216° Southwest 181 208 5,900 49 Level Chicago Center
Tue 10:20:06 PM 41.3550 -88.0286 216° Southwest 175 201 6,000 49 Climbing Chicago Center
Tue 10:21:07 PM 41.3150 -88.0664 215° Southwest 175 201 6,000  Level Chicago Center
Tue 10:22:08 PM 41.2731 -88.1039 214° Southwest 180 207 6,000 -148 Level Chicago Center
Tue 10:23:09 PM 41.2336 -88.1422 216° Southwest 178 205 5,700 -295 Descending Chicago Center
Tue 10:24:10 PM 41.1903 -88.1811 214° Southwest 184 212 5,400 -293 Descending Chicago Center
Tue 10:25:12 PM 41.1475 -88.2233 217° Southwest 190 219 5,100 -341 Descending Chicago Center
Tue 10:26:13 PM 41.1064 -88.2636 216° Southwest 187 215 4,700 -443 Descending Chicago Center
Tue 10:27:14 PM 41.0636 -88.3047 216° Southwest 189 217 4,200 -393 Descending Chicago Center
Tue 10:28:15 PM 41.0239 -88.3475 219° Southwest 187 215 3,900 -98 Descending Chicago Center
Tue 10:29:16 PM 40.9803 -88.3981 221° Southwest 178 205 4,000  Climbing Chicago Center
Tue 10:30:18 PM 40.9431 -88.4367 218° Southwest 172 198 3,900  Descending Chicago Center
Tue 10:31:19 PM 40.9039 -88.4731 215° Southwest 173 199 4,000  Climbing Chicago Center
Tue 10:32:20 PM 40.8669 -88.5114 218° Southwest 171 197 3,900 -98 Descending Chicago Center
Tue 10:33:21 PM 40.8294 -88.5519 219° Southwest 174 200 3,800  Descending Chicago Center
Tue 10:34:22 PM 40.7933 -88.5936 221° Southwest 173 199 3,900 49 Climbing Chicago Center
Tue 10:35:24 PM 40.7581 -88.6344 221° Southwest 172 198 3,900 -98 Level Chicago Center
Tue 10:36:25 PM 40.7236 -88.6758 222° Southwest 170 196 3,700 -98 Descending Chicago Center
Tue 10:37:26 PM 40.6900 -88.7381 235° Southwest 172 198 3,700 -344 Level Chicago Center
Tue 10:38:27 PM 40.6442 -88.7733 210° Southwest 181 208 3,000 -541 Descending Chicago Center
Tue 10:39:28 PM 40.5975 -88.8103 211° Southwest 190 219 2,600 -393 Descending Chicago Center
Tue 10:40:29 PM 40.5514 -88.8442 209° Southwest 191 220 2,200 -488 Descending Chicago Center
Tue 10:41:31 PM 40.5100 -88.8728 208° Southwest 183 211 1,600 -390 Descending Chicago Center
Tue 10:42:32 PM 40.4731 -88.8994 209° Southwest 178 205 1,400 -197 Descending Chicago Center
Tue 10:44:00 PM 40.4667 -88.9000 201° Southwest  Level FlightAware Approximate
Tue 10:51:00 PM 40.4771 -88.9159 201° Southwest  Level Estimated

Login

Don't have an account? Register now (free) for customized features, flight alerts, and more!